sensor_id;sensor_type;location;lat;lon;timestamp;P1;durP1;ratioP1;P2;durP2;ratioP2
140;SDS011;65;48.778;9.160;2023-09-08T00:02:13;9.43;;;5.45;;
140;SDS011;65;48.778;9.160;2023-09-08T00:04:59;12.25;;;5.30;;
140;SDS011;65;48.778;9.160;2023-09-08T00:07:44;8.68;;;5.40;;
140;SDS011;65;48.778;9.160;2023-09-08T00:10:30;9.63;;;5.57;;
140;SDS011;65;48.778;9.160;2023-09-08T00:13:16;7.97;;;5.47;;
140;SDS011;65;48.778;9.160;2023-09-08T00:16:02;7.78;;;5.18;;
140;SDS011;65;48.778;9.160;2023-09-08T00:18:47;8.23;;;5.07;;
140;SDS011;65;48.778;9.160;2023-09-08T00:21:33;8.23;;;5.03;;
140;SDS011;65;48.778;9.160;2023-09-08T00:24:19;9.43;;;5.50;;
140;SDS011;65;48.778;9.160;2023-09-08T00:27:05;8.10;;;4.80;;
140;SDS011;65;48.778;9.160;2023-09-08T00:29:51;18.95;;;5.40;;
140;SDS011;65;48.778;9.160;2023-09-08T00:32:36;7.28;;;4.65;;
140;SDS011;65;48.778;9.160;2023-09-08T00:35:22;7.78;;;5.25;;
140;SDS011;65;48.778;9.160;2023-09-08T00:38:08;8.52;;;4.90;;
140;SDS011;65;48.778;9.160;2023-09-08T00:40:53;8.65;;;5.63;;
140;SDS011;65;48.778;9.160;2023-09-08T00:43:39;9.05;;;5.03;;
140;SDS011;65;48.778;9.160;2023-09-08T00:46:25;8.63;;;5.15;;
140;SDS011;65;48.778;9.160;2023-09-08T00:49:12;7.25;;;4.80;;
140;SDS011;65;48.778;9.160;2023-09-08T00:51:58;7.72;;;4.93;;
140;SDS011;65;48.778;9.160;2023-09-08T00:54:44;11.30;;;5.70;;
140;SDS011;65;48.778;9.160;2023-09-08T00:57:30;9.23;;;5.32;;
140;SDS011;65;48.778;9.160;2023-09-08T01:00:18;7.43;;;4.70;;
140;SDS011;65;48.778;9.160;2023-09-08T01:03:04;8.63;;;5.03;;
140;SDS011;65;48.778;9.160;2023-09-08T01:05:50;9.85;;;5.13;;
140;SDS011;65;48.778;9.160;2023-09-08T01:08:36;8.25;;;5.30;;
140;SDS011;65;48.778;9.160;2023-09-08T01:11:22;7.65;;;5.15;;
140;SDS011;65;48.778;9.160;2023-09-08T01:14:08;7.88;;;5.10;;
140;SDS011;65;48.778;9.160;2023-09-08T01:16:57;7.82;;;4.90;;
140;SDS011;65;48.778;9.160;2023-09-08T01:19:43;10.07;;;4.55;;
140;SDS011;65;48.778;9.160;2023-09-08T01:28:40;7.20;;;4.55;;
140;SDS011;65;48.778;9.160;2023-09-08T01:31:26;6.90;;;4.82;;
140;SDS011;65;48.778;9.160;2023-09-08T01:34:12;8.70;;;4.70;;
140;SDS011;65;48.778;9.160;2023-09-08T01:36:58;7.75;;;4.97;;
140;SDS011;65;48.778;9.160;2023-09-08T01:39:48;7.28;;;4.45;;
140;SDS011;65;48.778;9.160;2023-09-08T01:42:33;9.43;;;5.07;;
140;SDS011;65;48.778;9.160;2023-09-08T01:45:19;8.98;;;5.20;;
140;SDS011;65;48.778;9.160;2023-09-08T01:48:05;8.10;;;5.18;;
140;SDS011;65;48.778;9.160;2023-09-08T01:50:51;8.63;;;4.43;;
140;SDS011;65;48.778;9.160;2023-09-08T01:53:36;6.88;;;4.43;;
140;SDS011;65;48.778;9.160;2023-09-08T01:56:22;8.88;;;5.18;;
140;SDS011;65;48.778;9.160;2023-09-08T01:59:08;7.60;;;4.82;;
140;SDS011;65;48.778;9.160;2023-09-08T02:01:54;8.27;;;5.25;;
140;SDS011;65;48.778;9.160;2023-09-08T02:04:39;9.52;;;4.82;;
140;SDS011;65;48.778;9.160;2023-09-08T02:07:26;13.75;;;5.05;;
140;SDS011;65;48.778;9.160;2023-09-08T02:10:11;7.07;;;4.50;;
140;SDS011;65;48.778;9.160;2023-09-08T02:12:57;7.63;;;4.75;;
140;SDS011;65;48.778;9.160;2023-09-08T02:15:43;7.28;;;4.88;;
140;SDS011;65;48.778;9.160;2023-09-08T02:18:29;9.15;;;4.95;;
140;SDS011;65;48.778;9.160;2023-09-08T02:21:14;11.50;;;5.05;;
140;SDS011;65;48.778;9.160;2023-09-08T02:24:00;9.65;;;5.20;;
140;SDS011;65;48.778;9.160;2023-09-08T02:26:46;7.70;;;5.03;;
140;SDS011;65;48.778;9.160;2023-09-08T02:29:32;10.85;;;5.50;;
140;SDS011;65;48.778;9.160;2023-09-08T02:32:17;7.18;;;4.50;;
140;SDS011;65;48.778;9.160;2023-09-08T02:35:03;9.15;;;4.88;;
140;SDS011;65;48.778;9.160;2023-09-08T02:37:49;7.70;;;5.25;;
140;SDS011;65;48.778;9.160;2023-09-08T02:40:35;6.80;;;4.43;;
140;SDS011;65;48.778;9.160;2023-09-08T02:43:20;9.07;;;4.80;;
140;SDS011;65;48.778;9.160;2023-09-08T02:46:06;7.80;;;4.63;;
140;SDS011;65;48.778;9.160;2023-09-08T02:48:54;7.57;;;4.80;;
140;SDS011;65;48.778;9.160;2023-09-08T02:51:40;6.95;;;4.57;;
140;SDS011;65;48.778;9.160;2023-09-08T02:54:25;7.45;;;4.72;;
140;SDS011;65;48.778;9.160;2023-09-08T02:57:11;9.10;;;4.68;;
140;SDS011;65;48.778;9.160;2023-09-08T02:59:57;7.88;;;4.75;;
140;SDS011;65;48.778;9.160;2023-09-08T03:02:43;7.63;;;4.60;;
140;SDS011;65;48.778;9.160;2023-09-08T03:05:28;7.75;;;4.97;;
140;SDS011;65;48.778;9.160;2023-09-08T03:08:15;12.60;;;4.45;;
140;SDS011;65;48.778;9.160;2023-09-08T03:11:00;7.30;;;4.93;;
140;SDS011;65;48.778;9.160;2023-09-08T03:13:46;8.70;;;5.20;;
140;SDS011;65;48.778;9.160;2023-09-08T03:16:31;8.05;;;4.40;;
140;SDS011;65;48.778;9.160;2023-09-08T03:19:17;7.10;;;4.50;;
140;SDS011;65;48.778;9.160;2023-09-08T03:22:03;7.03;;;4.57;;
140;SDS011;65;48.778;9.160;2023-09-08T03:24:48;8.55;;;5.05;;
140;SDS011;65;48.778;9.160;2023-09-08T03:27:34;8.70;;;4.88;;
140;SDS011;65;48.778;9.160;2023-09-08T03:30:20;6.88;;;4.35;;
140;SDS011;65;48.778;9.160;2023-09-08T03:33:06;8.82;;;4.93;;
140;SDS011;65;48.778;9.160;2023-09-08T03:35:51;9.52;;;5.63;;
140;SDS011;65;48.778;9.160;2023-09-08T03:38:37;10.40;;;5.40;;
140;SDS011;65;48.778;9.160;2023-09-08T03:41:23;7.90;;;5.20;;
140;SDS011;65;48.778;9.160;2023-09-08T03:44:09;9.32;;;5.10;;
140;SDS011;65;48.778;9.160;2023-09-08T03:46:54;7.47;;;5.18;;
140;SDS011;65;48.778;9.160;2023-09-08T03:49:40;8.57;;;4.78;;
140;SDS011;65;48.778;9.160;2023-09-08T03:52:26;8.55;;;5.40;;
140;SDS011;65;48.778;9.160;2023-09-08T03:55:11;7.43;;;4.85;;
140;SDS011;65;48.778;9.160;2023-09-08T03:57:57;9.80;;;5.15;;
140;SDS011;65;48.778;9.160;2023-09-08T04:00:43;6.60;;;4.25;;
140;SDS011;65;48.778;9.160;2023-09-08T04:03:32;8.65;;;5.38;;
140;SDS011;65;48.778;9.160;2023-09-08T04:06:17;8.00;;;5.30;;
140;SDS011;65;48.778;9.160;2023-09-08T04:09:03;10.23;;;4.93;;
140;SDS011;65;48.778;9.160;2023-09-08T04:11:49;8.70;;;5.07;;
140;SDS011;65;48.778;9.160;2023-09-08T04:14:35;7.32;;;4.47;;
140;SDS011;65;48.778;9.160;2023-09-08T04:17:21;8.93;;;5.00;;
140;SDS011;65;48.778;9.160;2023-09-08T04:20:07;8.95;;;5.30;;
140;SDS011;65;48.778;9.160;2023-09-08T04:22:54;11.60;;;5.65;;
140;SDS011;65;48.778;9.160;2023-09-08T04:25:39;8.10;;;5.13;;
140;SDS011;65;48.778;9.160;2023-09-08T04:28:25;8.27;;;5.15;;
140;SDS011;65;48.778;9.160;2023-09-08T04:31:11;7.32;;;4.88;;
140;SDS011;65;48.778;9.160;2023-09-08T04:33:56;7.65;;;4.90;;
140;SDS011;65;48.778;9.160;2023-09-08T04:36:42;8.15;;;5.05;;
140;SDS011;65;48.778;9.160;2023-09-08T04:39:28;9.35;;;5.53;;
140;SDS011;65;48.778;9.160;2023-09-08T04:42:13;8.80;;;5.75;;
140;SDS011;65;48.778;9.160;2023-09-08T04:44:59;8.85;;;5.32;;
140;SDS011;65;48.778;9.160;2023-09-08T04:47:45;8.82;;;5.55;;
140;SDS011;65;48.778;9.160;2023-09-08T04:50:32;9.38;;;5.85;;
140;SDS011;65;48.778;9.160;2023-09-08T04:53:18;8.30;;;5.40;;
140;SDS011;65;48.778;9.160;2023-09-08T04:56:04;8.55;;;5.63;;
140;SDS011;65;48.778;9.160;2023-09-08T04:58:49;11.93;;;5.55;;
140;SDS011;65;48.778;9.160;2023-09-08T05:01:35;9.38;;;5.90;;
140;SDS011;65;48.778;9.160;2023-09-08T05:04:22;11.32;;;5.47;;
140;SDS011;65;48.778;9.160;2023-09-08T05:07:08;8.93;;;5.28;;
140;SDS011;65;48.778;9.160;2023-09-08T05:09:54;7.60;;;4.78;;
140;SDS011;65;48.778;9.160;2023-09-08T05:12:40;7.70;;;4.63;;
140;SDS011;65;48.778;9.160;2023-09-08T05:15:25;8.23;;;4.95;;
140;SDS011;65;48.778;9.160;2023-09-08T05:18:11;10.13;;;5.50;;
140;SDS011;65;48.778;9.160;2023-09-08T05:20:57;9.85;;;5.78;;
140;SDS011;65;48.778;9.160;2023-09-08T05:23:42;8.98;;;5.25;;
140;SDS011;65;48.778;9.160;2023-09-08T05:26:28;10.43;;;5.32;;
140;SDS011;65;48.778;9.160;2023-09-08T05:29:14;8.25;;;5.32;;
140;SDS011;65;48.778;9.160;2023-09-08T05:32:00;9.27;;;5.20;;
140;SDS011;65;48.778;9.160;2023-09-08T05:34:45;9.93;;;5.82;;
140;SDS011;65;48.778;9.160;2023-09-08T05:37:31;9.57;;;5.50;;
140;SDS011;65;48.778;9.160;2023-09-08T05:40:17;9.60;;;5.43;;
140;SDS011;65;48.778;9.160;2023-09-08T05:43:04;9.30;;;5.50;;
140;SDS011;65;48.778;9.160;2023-09-08T05:45:49;8.00;;;5.10;;
140;SDS011;65;48.778;9.160;2023-09-08T05:48:36;7.03;;;4.57;;
140;SDS011;65;48.778;9.160;2023-09-08T05:51:21;7.13;;;4.63;;
140;SDS011;65;48.778;9.160;2023-09-08T05:54:08;12.27;;;5.60;;
140;SDS011;65;48.778;9.160;2023-09-08T05:56:53;9.10;;;6.05;;
140;SDS011;65;48.778;9.160;2023-09-08T05:59:39;9.18;;;4.88;;
140;SDS011;65;48.778;9.160;2023-09-08T06:02:25;8.98;;;5.20;;
140;SDS011;65;48.778;9.160;2023-09-08T06:05:10;12.27;;;5.15;;
140;SDS011;65;48.778;9.160;2023-09-08T06:07:56;9.82;;;6.10;;
140;SDS011;65;48.778;9.160;2023-09-08T06:10:42;8.35;;;4.90;;
140;SDS011;65;48.778;9.160;2023-09-08T06:13:28;8.10;;;5.10;;
140;SDS011;65;48.778;9.160;2023-09-08T06:16:13;8.63;;;5.22;;
140;SDS011;65;48.778;9.160;2023-09-08T06:18:59;8.38;;;4.88;;
140;SDS011;65;48.778;9.160;2023-09-08T06:21:45;8.48;;;5.22;;
140;SDS011;65;48.778;9.160;2023-09-08T06:24:31;9.95;;;6.10;;
140;SDS011;65;48.778;9.160;2023-09-08T06:27:17;9.80;;;5.68;;
140;SDS011;65;48.778;9.160;2023-09-08T06:30:03;11.68;;;6.03;;
140;SDS011;65;48.778;9.160;2023-09-08T06:32:49;8.13;;;5.03;;
140;SDS011;65;48.778;9.160;2023-09-08T06:35:34;10.18;;;5.45;;
140;SDS011;65;48.778;9.160;2023-09-08T06:38:20;7.55;;;5.50;;
140;SDS011;65;48.778;9.160;2023-09-08T06:41:09;12.15;;;5.47;;
140;SDS011;65;48.778;9.160;2023-09-08T06:43:58;8.68;;;5.10;;
140;SDS011;65;48.778;9.160;2023-09-08T06:46:43;11.00;;;5.78;;
140;SDS011;65;48.778;9.160;2023-09-08T06:49:29;10.85;;;5.30;;
140;SDS011;65;48.778;9.160;2023-09-08T06:52:16;10.85;;;6.00;;
140;SDS011;65;48.778;9.160;2023-09-08T06:55:02;10.77;;;6.03;;
140;SDS011;65;48.778;9.160;2023-09-08T06:57:48;11.90;;;5.90;;
140;SDS011;65;48.778;9.160;2023-09-08T07:00:34;10.23;;;5.90;;
140;SDS011;65;48.778;9.160;2023-09-08T07:03:22;8.50;;;5.22;;
140;SDS011;65;48.778;9.160;2023-09-08T07:06:08;9.38;;;5.28;;
140;SDS011;65;48.778;9.160;2023-09-08T07:08:54;8.05;;;5.30;;
140;SDS011;65;48.778;9.160;2023-09-08T07:11:39;14.18;;;5.28;;
140;SDS011;65;48.778;9.160;2023-09-08T07:14:25;9.07;;;5.70;;
140;SDS011;65;48.778;9.160;2023-09-08T07:17:11;9.55;;;5.20;;
140;SDS011;65;48.778;9.160;2023-09-08T07:19:56;10.10;;;5.22;;
140;SDS011;65;48.778;9.160;2023-09-08T07:22:42;10.52;;;5.60;;
140;SDS011;65;48.778;9.160;2023-09-08T07:25:28;8.20;;;5.30;;
140;SDS011;65;48.778;9.160;2023-09-08T07:28:14;7.35;;;4.85;;
140;SDS011;65;48.778;9.160;2023-09-08T07:31:01;7.38;;;4.68;;
140;SDS011;65;48.778;9.160;2023-09-08T07:33:48;8.85;;;4.68;;
140;SDS011;65;48.778;9.160;2023-09-08T07:36:35;10.27;;;5.70;;
140;SDS011;65;48.778;9.160;2023-09-08T07:39:22;9.27;;;5.38;;
140;SDS011;65;48.778;9.160;2023-09-08T07:42:07;8.25;;;4.90;;
140;SDS011;65;48.778;9.160;2023-09-08T07:44:53;10.00;;;5.25;;
140;SDS011;65;48.778;9.160;2023-09-08T07:47:39;7.82;;;5.07;;
140;SDS011;65;48.778;9.160;2023-09-08T07:50:25;9.88;;;5.60;;
140;SDS011;65;48.778;9.160;2023-09-08T07:53:12;9.75;;;5.72;;
140;SDS011;65;48.778;9.160;2023-09-08T07:55:58;8.68;;;5.45;;
140;SDS011;65;48.778;9.160;2023-09-08T07:58:44;10.77;;;5.93;;
140;SDS011;65;48.778;9.160;2023-09-08T08:01:30;10.07;;;5.20;;
140;SDS011;65;48.778;9.160;2023-09-08T08:04:15;9.10;;;5.13;;
140;SDS011;65;48.778;9.160;2023-09-08T08:07:01;11.23;;;6.75;;
140;SDS011;65;48.778;9.160;2023-09-08T08:09:47;18.48;;;6.28;;
140;SDS011;65;48.778;9.160;2023-09-08T08:12:33;8.90;;;5.15;;
140;SDS011;65;48.778;9.160;2023-09-08T08:15:20;8.45;;;5.30;;
140;SDS011;65;48.778;9.160;2023-09-08T08:18:06;9.30;;;4.97;;
140;SDS011;65;48.778;9.160;2023-09-08T08:20:55;8.55;;;4.65;;
140;SDS011;65;48.778;9.160;2023-09-08T08:23:40;7.35;;;5.03;;
140;SDS011;65;48.778;9.160;2023-09-08T08:26:26;7.57;;;5.00;;
140;SDS011;65;48.778;9.160;2023-09-08T08:29:15;8.57;;;4.90;;
140;SDS011;65;48.778;9.160;2023-09-08T08:32:00;8.98;;;5.38;;
140;SDS011;65;48.778;9.160;2023-09-08T08:34:46;7.45;;;4.70;;
140;SDS011;65;48.778;9.160;2023-09-08T08:37:32;6.35;;;4.10;;
140;SDS011;65;48.778;9.160;2023-09-08T08:40:18;10.40;;;4.38;;
140;SDS011;65;48.778;9.160;2023-09-08T08:43:03;8.65;;;4.57;;
140;SDS011;65;48.778;9.160;2023-09-08T08:45:49;9.80;;;5.22;;
140;SDS011;65;48.778;9.160;2023-09-08T08:48:36;7.22;;;4.28;;
140;SDS011;65;48.778;9.160;2023-09-08T08:51:23;8.50;;;4.45;;
140;SDS011;65;48.778;9.160;2023-09-08T08:54:11;8.05;;;4.75;;
140;SDS011;65;48.778;9.160;2023-09-08T08:56:58;9.07;;;4.55;;
140;SDS011;65;48.778;9.160;2023-09-08T08:59:45;7.78;;;4.03;;
140;SDS011;65;48.778;9.160;2023-09-08T09:02:31;7.63;;;4.28;;
140;SDS011;65;48.778;9.160;2023-09-08T09:05:17;7.70;;;3.92;;
140;SDS011;65;48.778;9.160;2023-09-08T09:08:04;8.55;;;4.30;;
140;SDS011;65;48.778;9.160;2023-09-08T09:10:51;7.18;;;3.88;;
140;SDS011;65;48.778;9.160;2023-09-08T09:13:37;10.18;;;4.43;;
140;SDS011;65;48.778;9.160;2023-09-08T09:16:23;8.35;;;4.82;;
140;SDS011;65;48.778;9.160;2023-09-08T09:19:09;6.70;;;4.60;;
140;SDS011;65;48.778;9.160;2023-09-08T09:22:02;7.75;;;4.40;;
140;SDS011;65;48.778;9.160;2023-09-08T09:24:48;8.25;;;4.78;;
140;SDS011;65;48.778;9.160;2023-09-08T09:27:34;6.32;;;4.15;;
140;SDS011;65;48.778;9.160;2023-09-08T09:30:26;8.25;;;4.10;;
140;SDS011;65;48.778;9.160;2023-09-08T09:33:13;9.35;;;4.10;;
140;SDS011;65;48.778;9.160;2023-09-08T09:35:59;6.20;;;4.07;;
140;SDS011;65;48.778;9.160;2023-09-08T09:38:44;6.07;;;3.83;;
140;SDS011;65;48.778;9.160;2023-09-08T09:41:32;8.30;;;4.80;;
140;SDS011;65;48.778;9.160;2023-09-08T09:44:19;8.93;;;4.50;;
140;SDS011;65;48.778;9.160;2023-09-08T09:47:05;10.65;;;4.28;;
140;SDS011;65;48.778;9.160;2023-09-08T09:49:52;8.70;;;4.65;;
140;SDS011;65;48.778;9.160;2023-09-08T09:52:38;7.80;;;4.65;;
140;SDS011;65;48.778;9.160;2023-09-08T09:55:24;8.35;;;4.65;;
140;SDS011;65;48.778;9.160;2023-09-08T09:58:11;8.10;;;4.97;;
140;SDS011;65;48.778;9.160;2023-09-08T10:00:57;6.97;;;4.28;;
140;SDS011;65;48.778;9.160;2023-09-08T10:03:45;9.20;;;4.35;;
140;SDS011;65;48.778;9.160;2023-09-08T10:06:35;6.30;;;4.00;;
140;SDS011;65;48.778;9.160;2023-09-08T10:09:24;6.15;;;4.00;;
140;SDS011;65;48.778;9.160;2023-09-08T10:12:11;7.05;;;3.92;;
140;SDS011;65;48.778;9.160;2023-09-08T10:15:01;7.25;;;4.20;;
140;SDS011;65;48.778;9.160;2023-09-08T10:17:57;6.38;;;4.05;;
140;SDS011;65;48.778;9.160;2023-09-08T10:20:45;7.20;;;3.97;;
140;SDS011;65;48.778;9.160;2023-09-08T10:23:36;6.35;;;4.13;;
140;SDS011;65;48.778;9.160;2023-09-08T10:26:25;5.90;;;3.70;;
140;SDS011;65;48.778;9.160;2023-09-08T10:29:12;8.32;;;3.58;;
140;SDS011;65;48.778;9.160;2023-09-08T10:31:59;5.60;;;3.53;;
140;SDS011;65;48.778;9.160;2023-09-08T10:34:46;6.53;;;3.63;;
140;SDS011;65;48.778;9.160;2023-09-08T10:37:34;6.90;;;3.40;;
140;SDS011;65;48.778;9.160;2023-09-08T10:43:06;10.45;;;3.95;;
140;SDS011;65;48.778;9.160;2023-09-08T10:45:53;5.63;;;3.40;;
140;SDS011;65;48.778;9.160;2023-09-08T10:48:42;5.30;;;3.65;;
140;SDS011;65;48.778;9.160;2023-09-08T10:51:29;4.95;;;3.40;;
140;SDS011;65;48.778;9.160;2023-09-08T10:54:40;5.25;;;3.50;;
140;SDS011;65;48.778;9.160;2023-09-08T10:57:27;8.75;;;3.20;;
140;SDS011;65;48.778;9.160;2023-09-08T11:00:17;4.60;;;3.03;;
140;SDS011;65;48.778;9.160;2023-09-08T11:03:03;6.35;;;3.65;;
140;SDS011;65;48.778;9.160;2023-09-08T11:05:49;5.95;;;3.45;;
140;SDS011;65;48.778;9.160;2023-09-08T11:08:44;6.45;;;3.35;;
140;SDS011;65;48.778;9.160;2023-09-08T11:11:31;5.93;;;3.40;;
140;SDS011;65;48.778;9.160;2023-09-08T11:14:18;7.97;;;3.60;;
140;SDS011;65;48.778;9.160;2023-09-08T11:17:04;7.53;;;3.30;;
140;SDS011;65;48.778;9.160;2023-09-08T11:19:50;5.60;;;3.42;;
140;SDS011;65;48.778;9.160;2023-09-08T11:22:37;5.07;;;3.45;;
140;SDS011;65;48.778;9.160;2023-09-08T11:25:24;5.47;;;3.58;;
140;SDS011;65;48.778;9.160;2023-09-08T11:28:10;4.30;;;3.15;;
140;SDS011;65;48.778;9.160;2023-09-08T11:30:57;5.55;;;3.42;;
140;SDS011;65;48.778;9.160;2023-09-08T11:33:43;5.57;;;3.30;;
140;SDS011;65;48.778;9.160;2023-09-08T11:36:28;8.20;;;3.60;;
140;SDS011;65;48.778;9.160;2023-09-08T11:39:15;5.22;;;3.60;;
140;SDS011;65;48.778;9.160;2023-09-08T11:42:01;6.45;;;3.78;;
140;SDS011;65;48.778;9.160;2023-09-08T11:44:47;6.18;;;3.78;;
140;SDS011;65;48.778;9.160;2023-09-08T11:47:34;6.90;;;3.50;;
140;SDS011;65;48.778;9.160;2023-09-08T11:50:21;5.95;;;3.72;;
140;SDS011;65;48.778;9.160;2023-09-08T11:53:06;6.28;;;4.00;;
140;SDS011;65;48.778;9.160;2023-09-08T11:55:52;4.70;;;3.22;;
140;SDS011;65;48.778;9.160;2023-09-08T11:58:38;6.63;;;3.72;;
140;SDS011;65;48.778;9.160;2023-09-08T12:01:24;9.63;;;3.97;;
140;SDS011;65;48.778;9.160;2023-09-08T12:04:17;4.88;;;3.28;;
140;SDS011;65;48.778;9.160;2023-09-08T12:07:04;7.10;;;4.10;;
140;SDS011;65;48.778;9.160;2023-09-08T12:09:50;5.03;;;3.13;;
140;SDS011;65;48.778;9.160;2023-09-08T12:12:46;6.60;;;3.53;;
140;SDS011;65;48.778;9.160;2023-09-08T12:15:34;5.95;;;3.53;;
140;SDS011;65;48.778;9.160;2023-09-08T12:18:20;5.65;;;3.33;;
140;SDS011;65;48.778;9.160;2023-09-08T12:21:24;4.70;;;3.20;;
140;SDS011;65;48.778;9.160;2023-09-08T12:24:09;5.90;;;3.80;;
140;SDS011;65;48.778;9.160;2023-09-08T12:27:01;5.47;;;3.63;;
140;SDS011;65;48.778;9.160;2023-09-08T12:29:57;6.15;;;3.60;;
140;SDS011;65;48.778;9.160;2023-09-08T12:32:46;6.47;;;3.35;;
140;SDS011;65;48.778;9.160;2023-09-08T12:35:36;13.82;;;3.30;;
140;SDS011;65;48.778;9.160;2023-09-08T12:38:22;5.93;;;3.40;;
140;SDS011;65;48.778;9.160;2023-09-08T12:41:08;6.60;;;3.40;;
140;SDS011;65;48.778;9.160;2023-09-08T12:43:54;4.72;;;3.47;;
140;SDS011;65;48.778;9.160;2023-09-08T12:46:40;7.53;;;3.55;;
140;SDS011;65;48.778;9.160;2023-09-08T12:49:26;5.75;;;3.67;;
140;SDS011;65;48.778;9.160;2023-09-08T12:52:11;5.05;;;3.42;;
140;SDS011;65;48.778;9.160;2023-09-08T12:54:57;6.22;;;3.78;;
140;SDS011;65;48.778;9.160;2023-09-08T12:57:43;4.72;;;3.15;;
140;SDS011;65;48.778;9.160;2023-09-08T13:00:29;7.43;;;3.92;;
140;SDS011;65;48.778;9.160;2023-09-08T13:03:15;6.15;;;3.58;;
140;SDS011;65;48.778;9.160;2023-09-08T13:06:00;7.00;;;3.80;;
140;SDS011;65;48.778;9.160;2023-09-08T13:08:55;5.97;;;3.42;;
140;SDS011;65;48.778;9.160;2023-09-08T13:11:44;6.65;;;3.30;;
140;SDS011;65;48.778;9.160;2023-09-08T13:14:31;6.30;;;3.90;;
140;SDS011;65;48.778;9.160;2023-09-08T13:17:16;11.27;;;3.78;;
140;SDS011;65;48.778;9.160;2023-09-08T13:20:02;5.63;;;3.78;;
140;SDS011;65;48.778;9.160;2023-09-08T13:22:48;5.50;;;3.55;;
140;SDS011;65;48.778;9.160;2023-09-08T13:25:34;6.65;;;3.55;;
140;SDS011;65;48.778;9.160;2023-09-08T13:28:20;6.65;;;4.00;;
140;SDS011;65;48.778;9.160;2023-09-08T13:31:06;9.13;;;3.88;;
140;SDS011;65;48.778;9.160;2023-09-08T13:33:51;5.95;;;3.65;;
140;SDS011;65;48.778;9.160;2023-09-08T13:36:37;5.43;;;3.70;;
140;SDS011;65;48.778;9.160;2023-09-08T13:39:23;6.35;;;3.88;;
140;SDS011;65;48.778;9.160;2023-09-08T13:42:09;9.73;;;3.80;;
140;SDS011;65;48.778;9.160;2023-09-08T13:44:54;5.57;;;3.67;;
140;SDS011;65;48.778;9.160;2023-09-08T13:47:40;6.55;;;3.88;;
140;SDS011;65;48.778;9.160;2023-09-08T13:50:26;7.80;;;3.40;;
140;SDS011;65;48.778;9.160;2023-09-08T13:53:12;6.05;;;3.58;;
140;SDS011;65;48.778;9.160;2023-09-08T13:55:58;5.43;;;3.58;;
140;SDS011;65;48.778;9.160;2023-09-08T13:58:53;5.25;;;3.22;;
140;SDS011;65;48.778;9.160;2023-09-08T14:01:39;5.93;;;3.17;;
140;SDS011;65;48.778;9.160;2023-09-08T14:04:25;5.53;;;3.47;;
140;SDS011;65;48.778;9.160;2023-09-08T14:07:11;5.22;;;3.60;;
140;SDS011;65;48.778;9.160;2023-09-08T14:09:56;5.53;;;3.35;;
140;SDS011;65;48.778;9.160;2023-09-08T14:12:42;4.63;;;3.38;;
140;SDS011;65;48.778;9.160;2023-09-08T14:15:28;5.55;;;3.60;;
140;SDS011;65;48.778;9.160;2023-09-08T14:18:14;5.35;;;3.75;;
140;SDS011;65;48.778;9.160;2023-09-08T14:21:00;11.07;;;3.78;;
140;SDS011;65;48.778;9.160;2023-09-08T14:23:46;6.22;;;3.45;;
140;SDS011;65;48.778;9.160;2023-09-08T14:26:32;7.38;;;3.92;;
140;SDS011;65;48.778;9.160;2023-09-08T14:29:17;4.47;;;3.20;;
140;SDS011;65;48.778;9.160;2023-09-08T14:32:03;6.15;;;3.33;;
140;SDS011;65;48.778;9.160;2023-09-08T14:34:49;5.03;;;3.33;;
140;SDS011;65;48.778;9.160;2023-09-08T14:37:35;6.57;;;3.60;;
140;SDS011;65;48.778;9.160;2023-09-08T14:40:22;6.78;;;3.33;;
140;SDS011;65;48.778;9.160;2023-09-08T14:43:08;6.05;;;3.53;;
140;SDS011;65;48.778;9.160;2023-09-08T14:45:54;8.05;;;3.50;;
140;SDS011;65;48.778;9.160;2023-09-08T14:48:42;5.63;;;3.22;;
140;SDS011;65;48.778;9.160;2023-09-08T14:51:28;5.40;;;3.38;;
140;SDS011;65;48.778;9.160;2023-09-08T14:54:14;9.63;;;3.83;;
140;SDS011;65;48.778;9.160;2023-09-08T14:57:00;5.65;;;3.58;;
140;SDS011;65;48.778;9.160;2023-09-08T14:59:46;5.95;;;3.70;;
140;SDS011;65;48.778;9.160;2023-09-08T15:02:31;6.38;;;3.88;;
140;SDS011;65;48.778;9.160;2023-09-08T15:05:17;5.20;;;3.35;;
140;SDS011;65;48.778;9.160;2023-09-08T15:08:03;5.20;;;3.10;;
140;SDS011;65;48.778;9.160;2023-09-08T15:10:49;5.15;;;3.58;;
140;SDS011;65;48.778;9.160;2023-09-08T15:13:35;6.82;;;3.53;;
140;SDS011;65;48.778;9.160;2023-09-08T15:16:20;6.25;;;3.63;;
140;SDS011;65;48.778;9.160;2023-09-08T15:19:06;5.25;;;3.38;;
140;SDS011;65;48.778;9.160;2023-09-08T15:21:52;8.93;;;4.15;;
140;SDS011;65;48.778;9.160;2023-09-08T15:24:37;5.63;;;3.40;;
140;SDS011;65;48.778;9.160;2023-09-08T15:27:23;6.28;;;3.70;;
140;SDS011;65;48.778;9.160;2023-09-08T15:30:10;5.80;;;3.28;;
140;SDS011;65;48.778;9.160;2023-09-08T15:33:01;6.25;;;3.58;;
140;SDS011;65;48.778;9.160;2023-09-08T15:35:53;6.60;;;3.70;;
140;SDS011;65;48.778;9.160;2023-09-08T15:38:41;6.80;;;3.30;;
140;SDS011;65;48.778;9.160;2023-09-08T15:41:27;5.63;;;3.45;;
140;SDS011;65;48.778;9.160;2023-09-08T15:44:13;5.03;;;3.03;;
140;SDS011;65;48.778;9.160;2023-09-08T15:46:59;7.57;;;3.33;;
140;SDS011;65;48.778;9.160;2023-09-08T15:49:45;5.00;;;3.00;;
140;SDS011;65;48.778;9.160;2023-09-08T15:52:31;5.68;;;3.65;;
140;SDS011;65;48.778;9.160;2023-09-08T15:55:16;5.05;;;3.35;;
140;SDS011;65;48.778;9.160;2023-09-08T15:58:02;7.53;;;3.58;;
140;SDS011;65;48.778;9.160;2023-09-08T16:00:48;6.75;;;3.38;;
140;SDS011;65;48.778;9.160;2023-09-08T16:03:34;6.70;;;3.25;;
140;SDS011;65;48.778;9.160;2023-09-08T16:06:20;7.30;;;3.58;;
140;SDS011;65;48.778;9.160;2023-09-08T16:09:06;6.57;;;3.95;;
140;SDS011;65;48.778;9.160;2023-09-08T16:11:51;5.35;;;3.47;;
140;SDS011;65;48.778;9.160;2023-09-08T16:14:37;6.25;;;3.83;;
140;SDS011;65;48.778;9.160;2023-09-08T16:17:23;6.50;;;3.20;;
140;SDS011;65;48.778;9.160;2023-09-08T16:20:10;6.57;;;3.70;;
140;SDS011;65;48.778;9.160;2023-09-08T16:22:57;7.32;;;3.72;;
140;SDS011;65;48.778;9.160;2023-09-08T16:25:43;7.13;;;3.63;;
140;SDS011;65;48.778;9.160;2023-09-08T16:28:30;7.47;;;3.30;;
140;SDS011;65;48.778;9.160;2023-09-08T16:31:15;5.32;;;3.35;;
140;SDS011;65;48.778;9.160;2023-09-08T16:34:01;7.80;;;3.80;;
140;SDS011;65;48.778;9.160;2023-09-08T16:36:47;5.97;;;3.40;;
140;SDS011;65;48.778;9.160;2023-09-08T16:39:33;5.70;;;3.40;;
140;SDS011;65;48.778;9.160;2023-09-08T16:42:18;5.95;;;3.80;;
140;SDS011;65;48.778;9.160;2023-09-08T16:45:05;5.72;;;3.33;;
140;SDS011;65;48.778;9.160;2023-09-08T16:47:51;6.30;;;3.25;;
140;SDS011;65;48.778;9.160;2023-09-08T16:50:36;5.00;;;3.22;;
140;SDS011;65;48.778;9.160;2023-09-08T16:53:22;7.53;;;3.78;;
140;SDS011;65;48.778;9.160;2023-09-08T16:56:08;6.53;;;3.80;;
140;SDS011;65;48.778;9.160;2023-09-08T16:58:54;6.57;;;3.78;;
140;SDS011;65;48.778;9.160;2023-09-08T17:01:39;8.60;;;3.47;;
140;SDS011;65;48.778;9.160;2023-09-08T17:04:26;5.88;;;3.55;;
140;SDS011;65;48.778;9.160;2023-09-08T17:07:12;5.13;;;3.25;;
140;SDS011;65;48.778;9.160;2023-09-08T17:10:01;6.75;;;3.97;;
140;SDS011;65;48.778;9.160;2023-09-08T17:12:47;6.18;;;3.70;;
140;SDS011;65;48.778;9.160;2023-09-08T17:19:15;11.43;;;3.65;;
140;SDS011;65;48.778;9.160;2023-09-08T17:25:08;5.70;;;3.40;;
140;SDS011;65;48.778;9.160;2023-09-08T17:27:55;7.65;;;4.28;;
140;SDS011;65;48.778;9.160;2023-09-08T17:30:40;8.20;;;4.32;;
140;SDS011;65;48.778;9.160;2023-09-08T17:33:26;5.80;;;3.85;;
140;SDS011;65;48.778;9.160;2023-09-08T17:36:12;6.95;;;3.75;;
140;SDS011;65;48.778;9.160;2023-09-08T17:38:57;6.70;;;4.22;;
140;SDS011;65;48.778;9.160;2023-09-08T17:45:22;5.85;;;3.72;;
140;SDS011;65;48.778;9.160;2023-09-08T17:48:07;7.00;;;3.97;;
140;SDS011;65;48.778;9.160;2023-09-08T17:50:53;6.07;;;4.07;;
140;SDS011;65;48.778;9.160;2023-09-08T17:53:39;5.80;;;3.85;;
140;SDS011;65;48.778;9.160;2023-09-08T17:56:25;10.10;;;3.97;;
140;SDS011;65;48.778;9.160;2023-09-08T17:59:10;9.10;;;4.00;;
140;SDS011;65;48.778;9.160;2023-09-08T18:01:56;6.55;;;3.97;;
140;SDS011;65;48.778;9.160;2023-09-08T18:04:42;8.18;;;4.57;;
140;SDS011;65;48.778;9.160;2023-09-08T18:07:27;7.43;;;4.93;;
140;SDS011;65;48.778;9.160;2023-09-08T18:10:13;8.18;;;4.70;;
140;SDS011;65;48.778;9.160;2023-09-08T18:12:59;9.20;;;4.45;;
140;SDS011;65;48.778;9.160;2023-09-08T18:15:45;9.25;;;4.90;;
140;SDS011;65;48.778;9.160;2023-09-08T18:18:30;9.32;;;5.32;;
140;SDS011;65;48.778;9.160;2023-09-08T18:21:18;9.73;;;5.03;;
140;SDS011;65;48.778;9.160;2023-09-08T18:24:03;9.40;;;5.00;;